createdAt,value
2023-05-10T00:00:05.115Z,8.40
2023-05-10T00:01:07.884Z,8.13
2023-05-10T00:02:10.614Z,5.62
2023-05-10T00:03:13.316Z,7.21
2023-05-10T00:04:16.041Z,8.14
2023-05-10T00:05:18.909Z,10.08
2023-05-10T00:06:21.558Z,10.86
2023-05-10T00:07:24.213Z,11.05
2023-05-10T00:08:26.904Z,6.88
2023-05-10T00:09:29.456Z,6.72
2023-05-10T00:10:32.252Z,9.28
2023-05-10T00:11:34.906Z,13.15
2023-05-10T00:12:37.567Z,13.86
2023-05-10T00:13:40.260Z,10.61
2023-05-10T00:14:42.908Z,22.43
2023-05-10T00:15:45.478Z,7.86
2023-05-10T00:16:48.214Z,5.09
2023-05-10T00:17:51.078Z,6.05
2023-05-10T00:18:53.890Z,9.70
2023-05-10T00:19:56.557Z,8.96
2023-05-10T00:20:59.230Z,10.78
2023-05-10T00:22:01.893Z,10.93
2023-05-10T00:23:04.664Z,7.99
2023-05-10T00:24:07.443Z,6.19
2023-05-10T00:25:10.252Z,7.05
2023-05-10T00:26:12.789Z,8.98
2023-05-10T00:27:15.470Z,5.12
2023-05-10T00:28:18.124Z,8.73
2023-05-10T00:29:20.893Z,7.19
2023-05-10T00:30:23.568Z,5.32
2023-05-10T00:31:26.255Z,4.08
2023-05-10T00:32:28.839Z,7.39
2023-05-10T00:33:31.462Z,5.50
2023-05-10T00:34:34.140Z,6.42
2023-05-10T00:35:36.920Z,9.22
2023-05-10T00:36:39.589Z,6.71
2023-05-10T00:37:42.365Z,8.19
2023-05-10T00:38:45.030Z,4.88
2023-05-10T00:39:47.697Z,6.58
2023-05-10T00:40:50.567Z,10.52
2023-05-10T00:41:53.237Z,10.20
2023-05-10T00:42:56.020Z,12.97
2023-05-10T00:43:58.809Z,10.13
2023-05-10T00:45:01.561Z,6.16
2023-05-10T00:46:04.344Z,6.03
2023-05-10T00:47:07.208Z,5.52
2023-05-10T00:48:10.077Z,7.94
2023-05-10T00:49:12.966Z,4.05
2023-05-10T00:50:16.055Z,5.97
2023-05-10T00:51:19.111Z,9.92
2023-05-10T00:52:22.000Z,5.03
2023-05-10T00:53:24.654Z,3.28
2023-05-10T00:54:27.525Z,9.44
2023-05-10T00:55:30.308Z,5.40
2023-05-10T00:56:33.178Z,7.32
2023-05-10T00:57:36.159Z,5.12
2023-05-10T00:58:39.038Z,7.13
2023-05-10T00:59:42.006Z,5.66
2023-05-10T01:00:45.007Z,6.79
2023-05-10T01:01:47.878Z,10.17
2023-05-10T01:02:51.066Z,7.75
2023-05-10T01:03:54.020Z,8.82
2023-05-10T01:04:56.912Z,8.00
2023-05-10T01:05:59.773Z,5.10
2023-05-10T01:07:02.549Z,5.37
2023-05-10T01:08:05.420Z,4.75
2023-05-10T01:09:08.289Z,6.93
2023-05-10T01:10:11.094Z,6.80
2023-05-10T01:11:13.850Z,6.78
2023-05-10T01:12:16.739Z,6.22
2023-05-10T01:13:19.627Z,8.83
2023-05-10T01:14:22.589Z,8.22
2023-05-10T01:15:25.554Z,6.71
2023-05-10T01:16:28.491Z,4.44
2023-05-10T01:17:31.424Z,6.81
2023-05-10T01:18:34.272Z,6.01
2023-05-10T01:19:37.137Z,4.76
2023-05-10T01:20:40.023Z,5.06
2023-05-10T01:21:43.005Z,5.21
2023-05-10T01:22:45.781Z,6.17
2023-05-10T01:23:48.642Z,8.63
2023-05-10T01:24:51.620Z,8.39
2023-05-10T01:25:54.398Z,4.48
2023-05-10T01:26:57.163Z,5.35
2023-05-10T01:28:00.243Z,7.08
2023-05-10T01:29:03.231Z,9.88
2023-05-10T01:30:15.467Z,12.55
2023-05-10T01:31:10.676Z,4.79
2023-05-10T01:32:13.486Z,7.45
2023-05-10T01:33:16.372Z,9.24
2023-05-10T01:34:19.332Z,5.85
2023-05-10T01:35:22.211Z,4.70
2023-05-10T01:36:25.090Z,5.55
2023-05-10T01:37:27.753Z,5.24
2023-05-10T01:38:30.729Z,5.38
2023-05-10T01:39:33.400Z,4.58
2023-05-10T01:40:36.282Z,5.65
2023-05-10T01:41:38.943Z,6.82
2023-05-10T01:42:41.524Z,5.14
2023-05-10T01:43:44.178Z,6.49
2023-05-10T01:44:46.761Z,6.25
2023-05-10T01:45:49.361Z,5.76
2023-05-10T01:46:52.020Z,5.58
2023-05-10T01:47:54.689Z,3.77
2023-05-10T01:48:57.216Z,4.59
2023-05-10T01:49:59.791Z,5.94
2023-05-10T01:51:02.668Z,3.78
2023-05-10T01:52:05.437Z,5.98
2023-05-10T01:53:08.404Z,5.65
2023-05-10T01:54:10.979Z,5.38
2023-05-10T01:55:13.566Z,6.92
2023-05-10T01:56:16.411Z,5.98
2023-05-10T01:57:19.197Z,4.40
2023-05-10T01:58:21.866Z,4.16
2023-05-10T01:59:24.434Z,3.69
2023-05-10T02:00:27.409Z,3.96
2023-05-10T02:01:30.002Z,3.48
2023-05-10T02:02:32.690Z,3.92
2023-05-10T02:03:35.338Z,4.22
2023-05-10T02:04:37.989Z,3.29
2023-05-10T02:05:40.554Z,3.50
2023-05-10T02:06:43.215Z,5.66
2023-05-10T02:07:45.997Z,5.15
2023-05-10T02:08:48.869Z,4.97
2023-05-10T02:09:51.638Z,3.76
2023-05-10T02:10:54.620Z,4.65
2023-05-10T02:11:57.497Z,6.13
2023-05-10T02:13:00.387Z,4.13
2023-05-10T02:14:03.248Z,5.42
2023-05-10T02:15:06.116Z,5.07
2023-05-10T02:16:08.930Z,9.34
2023-05-10T02:17:11.978Z,5.77
2023-05-10T02:18:14.536Z,5.92
2023-05-10T02:19:17.426Z,6.13
2023-05-10T02:20:20.518Z,4.91
2023-05-10T02:21:23.575Z,3.96
2023-05-10T02:22:26.379Z,4.45
2023-05-10T02:23:29.215Z,3.95
2023-05-10T02:24:32.001Z,5.22
2023-05-10T02:25:34.774Z,9.17
2023-05-10T02:26:37.631Z,9.71
2023-05-10T02:27:40.513Z,5.07
2023-05-10T02:28:43.283Z,7.81
2023-05-10T02:29:46.265Z,6.00
2023-05-10T02:30:49.038Z,6.97
2023-05-10T02:31:51.958Z,4.95
2023-05-10T02:32:54.817Z,6.10
2023-05-10T02:33:57.656Z,6.68
2023-05-10T02:35:00.550Z,5.46
2023-05-10T02:36:03.409Z,5.72
2023-05-10T02:37:06.290Z,5.85
2023-05-10T02:38:09.168Z,4.62
2023-05-10T02:39:12.034Z,4.25
2023-05-10T02:40:15.140Z,5.39
2023-05-10T02:41:17.893Z,5.32
2023-05-10T02:42:20.464Z,5.24
2023-05-10T02:43:23.022Z,4.99
2023-05-10T02:44:25.688Z,7.51
2023-05-10T02:45:28.355Z,6.48
2023-05-10T02:46:31.086Z,9.05
2023-05-10T02:47:33.737Z,7.42
2023-05-10T02:48:36.592Z,5.81
2023-05-10T02:49:39.450Z,5.80
2023-05-10T02:50:42.318Z,9.62
2023-05-10T02:51:45.196Z,7.84
2023-05-10T02:52:47.976Z,4.86
2023-05-10T02:53:50.954Z,6.45
2023-05-10T02:54:53.815Z,5.82
2023-05-10T02:55:56.695Z,6.40
2023-05-10T02:56:59.667Z,7.13
2023-05-10T02:58:02.495Z,5.78
2023-05-10T02:59:05.312Z,7.28
2023-05-10T03:00:08.198Z,8.82
2023-05-10T03:01:11.087Z,10.13
2023-05-10T03:02:13.947Z,6.65
2023-05-10T03:03:16.622Z,5.69
2023-05-10T03:04:19.237Z,6.72
2023-05-10T03:05:21.855Z,7.14
2023-05-10T03:06:24.427Z,6.04
2023-05-10T03:07:27.112Z,6.32
2023-05-10T03:08:29.673Z,5.08
2023-05-10T03:09:32.454Z,6.42
2023-05-10T03:10:34.893Z,5.30
2023-05-10T03:11:37.461Z,5.09
2023-05-10T03:12:40.128Z,3.69
2023-05-10T03:13:42.805Z,4.52
2023-05-10T03:14:45.268Z,5.25
2023-05-10T03:15:47.967Z,6.37
2023-05-10T03:16:50.610Z,4.45
2023-05-10T03:17:53.313Z,5.15
2023-05-10T03:18:56.051Z,4.13
2023-05-10T03:19:58.758Z,3.62
2023-05-10T03:21:02.196Z,4.85
2023-05-10T03:22:05.168Z,4.60
2023-05-10T03:23:08.154Z,4.81
2023-05-10T03:24:11.633Z,6.47
2023-05-10T03:25:15.023Z,5.26
2023-05-10T03:26:18.222Z,5.69
2023-05-10T03:27:21.303Z,4.32
2023-05-10T03:28:24.664Z,5.28
2023-05-10T03:29:27.956Z,4.58
2023-05-10T03:30:31.033Z,3.90
2023-05-10T03:31:34.298Z,4.05
2023-05-10T03:32:37.233Z,6.33
2023-05-10T03:33:40.068Z,6.53
2023-05-10T03:34:43.356Z,5.15
2023-05-10T03:35:46.528Z,8.50
2023-05-10T03:36:49.713Z,5.01
2023-05-10T03:37:52.490Z,5.74
2023-05-10T03:38:55.360Z,6.62
2023-05-10T03:39:58.550Z,5.34
2023-05-10T03:41:00.871Z,7.25
2023-05-10T03:42:03.678Z,6.24
2023-05-10T03:43:06.565Z,7.82
2023-05-10T03:44:09.837Z,7.81
2023-05-10T03:45:12.913Z,5.09
2023-05-10T03:46:15.922Z,5.55
2023-05-10T03:47:18.979Z,5.83
2023-05-10T03:48:21.956Z,5.11
2023-05-10T03:49:24.818Z,6.52
2023-05-10T03:50:27.821Z,6.96
2023-05-10T03:51:30.777Z,5.92
2023-05-10T03:52:33.854Z,7.25
2023-05-10T03:53:37.155Z,8.20
2023-05-10T03:54:40.336Z,5.45
2023-05-10T03:55:43.651Z,7.16
2023-05-10T03:56:46.788Z,7.35
2023-05-10T03:57:49.979Z,6.02
2023-05-10T03:58:53.254Z,7.92
2023-05-10T03:59:56.537Z,8.95
2023-05-10T04:00:59.618Z,10.49
2023-05-10T04:02:02.928Z,7.58
2023-05-10T04:03:06.259Z,6.55
2023-05-10T04:04:09.420Z,9.24
2023-05-10T04:05:12.659Z,5.73
2023-05-10T04:06:15.883Z,5.52
2023-05-10T04:07:18.914Z,6.48
2023-05-10T04:08:22.305Z,4.86
2023-05-10T04:09:25.491Z,6.18
2023-05-10T04:10:28.772Z,6.15
2023-05-10T04:11:32.160Z,5.22
2023-05-10T04:12:35.448Z,6.68
2023-05-10T04:13:38.632Z,6.21
2023-05-10T04:14:41.598Z,8.34
2023-05-10T04:15:45.093Z,5.65
2023-05-10T04:16:48.507Z,5.01
2023-05-10T04:17:51.606Z,5.77
2023-05-10T04:18:55.040Z,5.25
2023-05-10T04:19:58.126Z,7.45
2023-05-10T04:21:01.104Z,8.06
2023-05-10T04:22:04.287Z,7.46
2023-05-10T04:23:07.270Z,4.77
2023-05-10T04:24:10.504Z,5.14
2023-05-10T04:25:13.741Z,3.82
2023-05-10T04:26:16.904Z,4.78
2023-05-10T04:27:20.088Z,5.67
2023-05-10T04:28:23.162Z,6.43
2023-05-10T04:29:26.446Z,5.16
2023-05-10T04:30:29.630Z,5.77
2023-05-10T04:31:33.454Z,6.56
2023-05-10T04:32:37.088Z,6.48
2023-05-10T04:33:40.099Z,5.44
2023-05-10T04:34:43.073Z,8.81
2023-05-10T04:35:45.970Z,8.22
2023-05-10T04:36:48.720Z,6.48
2023-05-10T04:37:51.692Z,8.58
2023-05-10T04:38:54.776Z,4.65
2023-05-10T04:39:57.651Z,6.45
2023-05-10T04:41:00.535Z,6.72
2023-05-10T04:42:03.298Z,6.42
2023-05-10T04:43:06.072Z,6.36
2023-05-10T04:44:08.944Z,8.03
2023-05-10T04:45:12.132Z,7.85
2023-05-10T04:46:15.256Z,5.72
2023-05-10T04:47:18.396Z,6.39
2023-05-10T04:48:21.773Z,6.76
2023-05-10T04:49:24.852Z,6.28
2023-05-10T04:50:27.933Z,7.08
2023-05-10T04:51:31.022Z,6.25
2023-05-10T04:52:34.161Z,6.38
2023-05-10T04:53:37.282Z,7.12
2023-05-10T04:54:40.576Z,7.45
2023-05-10T04:55:43.847Z,6.73
2023-05-10T04:56:47.033Z,6.41
2023-05-10T04:57:50.211Z,5.11
2023-05-10T04:58:53.905Z,6.13
2023-05-10T04:59:57.083Z,3.72
2023-05-10T05:01:00.060Z,6.71
2023-05-10T05:02:03.181Z,8.53
2023-05-10T05:03:06.491Z,6.77
2023-05-10T05:04:09.819Z,6.28
2023-05-10T05:05:12.792Z,8.72
2023-05-10T05:06:15.763Z,6.90
2023-05-10T05:07:18.845Z,8.22
2023-05-10T05:08:21.820Z,5.45
2023-05-10T05:09:25.417Z,4.78
2023-05-10T05:10:28.491Z,7.42
2023-05-10T05:11:31.376Z,7.18
2023-05-10T05:12:34.545Z,6.48
2023-05-10T05:13:37.625Z,6.42
2023-05-10T05:14:40.713Z,5.97
2023-05-10T05:15:43.698Z,6.29
2023-05-10T05:16:46.662Z,6.41
2023-05-10T05:17:49.553Z,7.85
2023-05-10T05:18:52.826Z,6.10
2023-05-10T05:19:56.314Z,4.75
2023-05-10T05:20:59.487Z,6.63
2023-05-10T05:22:02.475Z,6.55
2023-05-10T05:23:05.576Z,7.53
2023-05-10T05:24:08.629Z,5.78
2023-05-10T05:25:11.707Z,7.44
2023-05-10T05:26:14.784Z,7.09
2023-05-10T05:27:17.557Z,6.32
2023-05-10T05:28:20.439Z,6.65
2023-05-10T05:29:23.307Z,6.65
2023-05-10T05:30:26.084Z,8.40
2023-05-10T05:31:29.004Z,8.32
2023-05-10T05:32:31.955Z,8.40
2023-05-10T05:33:35.114Z,7.88
2023-05-10T05:34:37.992Z,7.09
2023-05-10T05:35:40.968Z,6.67
2023-05-10T05:36:43.845Z,6.40
2023-05-10T05:37:46.734Z,7.49
2023-05-10T05:38:49.592Z,5.85
2023-05-10T05:39:52.259Z,9.02
2023-05-10T05:40:55.341Z,8.52
2023-05-10T05:41:58.314Z,6.89
2023-05-10T05:43:01.316Z,8.58
2023-05-10T05:44:04.472Z,7.20
2023-05-10T05:45:07.764Z,7.35
2023-05-10T05:46:11.119Z,7.89
2023-05-10T05:47:14.146Z,8.05
2023-05-10T05:48:17.201Z,6.32
2023-05-10T05:49:20.189Z,11.71
2023-05-10T05:50:23.267Z,9.94
2023-05-10T05:51:26.602Z,9.83
2023-05-10T05:52:30.653Z,9.89
2023-05-10T05:53:33.936Z,9.94
2023-05-10T05:54:37.022Z,7.88
2023-05-10T05:55:40.396Z,9.51
2023-05-10T05:56:43.270Z,6.92
2023-05-10T05:57:46.041Z,8.80
2023-05-10T05:58:49.019Z,8.07
2023-05-10T05:59:51.790Z,9.15
2023-05-10T06:00:54.672Z,6.24
2023-05-10T06:01:57.865Z,7.45
2023-05-10T06:03:00.928Z,6.84
2023-05-10T06:04:03.773Z,6.97
2023-05-10T06:05:07.090Z,7.85
2023-05-10T06:06:09.961Z,7.39
2023-05-10T06:07:12.732Z,7.25
2023-05-10T06:08:15.543Z,6.65
2023-05-10T06:09:18.506Z,5.82
2023-05-10T06:10:21.353Z,8.04
2023-05-10T06:11:24.239Z,8.19
2023-05-10T06:12:27.206Z,7.25
2023-05-10T06:13:30.075Z,7.86
2023-05-10T06:14:32.761Z,9.16
2023-05-10T06:15:35.529Z,6.78
2023-05-10T06:16:38.425Z,8.45
2023-05-10T06:17:41.248Z,7.01
2023-05-10T06:18:44.046Z,6.94
2023-05-10T06:19:46.938Z,5.79
2023-05-10T06:20:50.002Z,5.57
2023-05-10T06:21:54.013Z,6.31
2023-05-10T06:22:57.291Z,7.14
2023-05-10T06:24:00.165Z,9.29
2023-05-10T06:25:03.449Z,7.19
2023-05-10T06:26:06.331Z,9.88
2023-05-10T06:27:09.112Z,10.41
2023-05-10T06:28:12.378Z,7.28
2023-05-10T06:29:15.149Z,8.36
2023-05-10T06:30:17.929Z,8.52
2023-05-10T06:31:20.933Z,7.96
2023-05-10T06:32:23.821Z,10.03
2023-05-10T06:33:27.082Z,6.77
2023-05-10T06:34:29.832Z,8.72
2023-05-10T06:35:32.905Z,8.63
2023-05-10T06:36:36.103Z,8.78
2023-05-10T06:37:39.082Z,7.42
2023-05-10T06:38:42.353Z,7.71
2023-05-10T06:39:45.231Z,9.03
2023-05-10T06:40:48.538Z,7.62
2023-05-10T06:41:51.693Z,9.29
2023-05-10T06:42:54.872Z,7.92
2023-05-10T06:43:58.085Z,7.01
2023-05-10T06:45:01.138Z,7.39
2023-05-10T06:46:03.854Z,9.47
2023-05-10T06:47:06.677Z,8.58
2023-05-10T06:48:09.777Z,8.18
2023-05-10T06:49:12.737Z,9.22
2023-05-10T06:50:15.711Z,7.71
2023-05-10T06:51:18.611Z,8.16
2023-05-10T06:52:21.568Z,8.57
2023-05-10T06:53:24.252Z,7.42
2023-05-10T06:54:27.324Z,7.81
2023-05-10T06:55:30.089Z,7.97
2023-05-10T06:56:32.762Z,9.02
2023-05-10T06:57:35.739Z,11.52
2023-05-10T06:58:38.651Z,9.05
2023-05-10T06:59:41.487Z,12.99
2023-05-10T07:00:44.468Z,7.91
2023-05-10T07:01:47.346Z,8.92
2023-05-10T07:02:50.455Z,9.47
2023-05-10T07:03:53.395Z,10.61
2023-05-10T07:04:56.616Z,9.87
2023-05-10T07:05:59.752Z,7.68
2023-05-10T07:07:02.834Z,11.62
2023-05-10T07:08:06.017Z,10.40
2023-05-10T07:09:08.916Z,11.35
2023-05-10T07:10:12.074Z,10.15
2023-05-10T07:11:15.358Z,8.28
2023-05-10T07:12:18.459Z,8.47
2023-05-10T07:13:21.775Z,8.72
2023-05-10T07:14:24.899Z,12.54
2023-05-10T07:15:28.317Z,11.33
2023-05-10T07:16:31.301Z,8.85
2023-05-10T07:17:34.619Z,8.85
2023-05-10T07:18:37.824Z,8.46
2023-05-10T07:19:40.506Z,11.76
2023-05-10T07:20:43.280Z,9.51
2023-05-10T07:21:46.046Z,12.05
2023-05-10T07:22:48.838Z,9.75
2023-05-10T07:23:51.705Z,10.62
2023-05-10T07:24:54.470Z,12.20
2023-05-10T07:25:57.247Z,9.78
2023-05-10T07:26:59.918Z,8.22
2023-05-10T07:28:02.887Z,11.54
2023-05-10T07:29:05.861Z,12.82
2023-05-10T07:30:08.758Z,11.75
2023-05-10T07:31:11.919Z,12.28
2023-05-10T07:32:14.948Z,11.95
2023-05-10T07:33:18.013Z,13.44
2023-05-10T07:34:20.955Z,10.55
2023-05-10T07:35:24.238Z,12.12
2023-05-10T07:36:27.303Z,12.38
2023-05-10T07:37:30.300Z,11.01
2023-05-10T07:38:33.165Z,13.08
2023-05-10T07:39:36.248Z,11.80
2023-05-10T07:40:39.325Z,11.58
2023-05-10T07:41:42.613Z,14.70
2023-05-10T07:42:45.704Z,13.87
2023-05-10T07:43:48.689Z,9.63
2023-05-10T07:44:51.350Z,9.55
2023-05-10T07:45:56.101Z,10.95
2023-05-10T07:46:59.041Z,13.30
2023-05-10T07:48:01.964Z,11.68
2023-05-10T07:49:04.994Z,11.30
2023-05-10T07:50:07.765Z,12.95
2023-05-10T07:51:11.169Z,15.31
2023-05-10T07:52:14.332Z,10.81
2023-05-10T07:53:17.302Z,10.60
2023-05-10T07:54:20.379Z,9.83
2023-05-10T07:55:24.078Z,11.71
2023-05-10T07:56:27.065Z,12.75
2023-05-10T07:57:30.352Z,13.30
2023-05-10T07:58:33.434Z,12.51
2023-05-10T07:59:36.504Z,12.73
2023-05-10T08:00:39.681Z,16.04
2023-05-10T08:01:42.654Z,14.11
2023-05-10T08:02:45.629Z,13.45
2023-05-10T08:03:48.809Z,14.28
2023-05-10T08:04:51.995Z,13.76
2023-05-10T08:05:54.897Z,12.90
2023-05-10T08:06:57.950Z,12.75
2023-05-10T08:08:01.127Z,10.49
2023-05-10T08:09:04.417Z,8.35
2023-05-10T08:10:07.182Z,8.92
2023-05-10T08:11:09.960Z,10.55
2023-05-10T08:12:12.745Z,12.48
2023-05-10T08:13:15.813Z,11.77
2023-05-10T08:14:18.595Z,11.04
2023-05-10T08:15:21.356Z,11.37
2023-05-10T08:16:24.174Z,12.72
2023-05-10T08:17:26.951Z,13.78
2023-05-10T08:18:29.904Z,13.01
2023-05-10T08:19:32.654Z,12.76
2023-05-10T08:20:35.418Z,13.79
2023-05-10T08:21:38.204Z,11.56
2023-05-10T08:22:41.310Z,11.33
2023-05-10T08:23:44.355Z,15.51
2023-05-10T08:24:47.224Z,11.92
2023-05-10T08:25:50.203Z,12.48
2023-05-10T08:26:53.488Z,11.72
2023-05-10T08:27:56.674Z,15.24
2023-05-10T08:28:59.544Z,12.15
2023-05-10T08:30:02.647Z,11.80
2023-05-10T08:31:05.946Z,13.42
2023-05-10T08:32:08.987Z,12.44
2023-05-10T08:33:12.124Z,12.41
2023-05-10T08:34:15.366Z,16.60
2023-05-10T08:35:18.495Z,15.52
2023-05-10T08:36:21.816Z,12.66
2023-05-10T08:37:24.796Z,12.66
2023-05-10T08:38:27.792Z,12.30
2023-05-10T08:39:31.035Z,14.48
2023-05-10T08:40:33.820Z,11.84
2023-05-10T08:41:36.918Z,13.26
2023-05-10T08:42:39.881Z,11.25
2023-05-10T08:43:42.671Z,13.40
2023-05-10T08:44:46.665Z,15.98
2023-05-10T08:45:49.943Z,13.88
2023-05-10T08:46:52.674Z,13.31
2023-05-10T08:47:55.352Z,11.65
2023-05-10T08:48:57.954Z,12.54
2023-05-10T08:50:00.932Z,12.87
2023-05-10T08:51:03.917Z,12.32
2023-05-10T08:52:06.750Z,12.90
2023-05-10T08:53:09.760Z,18.55
2023-05-10T08:54:12.639Z,15.97
2023-05-10T08:55:15.921Z,16.75
2023-05-10T08:56:19.102Z,17.91
2023-05-10T08:57:21.777Z,13.91
2023-05-10T08:58:24.447Z,13.40
2023-05-10T08:59:27.212Z,13.07
2023-05-10T09:00:30.305Z,14.28
2023-05-10T09:01:33.084Z,16.05
2023-05-10T09:02:35.881Z,14.66
2023-05-10T09:03:38.616Z,14.52
2023-05-10T09:04:41.565Z,15.96
2023-05-10T09:05:44.358Z,13.06
2023-05-10T09:06:47.128Z,18.52
2023-05-10T09:07:50.330Z,15.68
2023-05-10T09:08:53.339Z,12.34
2023-05-10T09:09:56.469Z,15.52
2023-05-10T09:10:59.757Z,13.16
2023-05-10T09:12:02.733Z,15.12
2023-05-10T09:13:05.825Z,18.71
2023-05-10T09:14:08.993Z,15.99
2023-05-10T09:15:11.971Z,14.14
2023-05-10T09:17:19.953Z,16.05
2023-05-10T09:18:23.097Z,16.56
2023-05-10T09:19:26.028Z,14.14
2023-05-10T09:20:29.217Z,18.77
2023-05-10T09:21:31.995Z,13.82
2023-05-10T09:22:36.566Z,14.18
2023-05-10T09:23:39.265Z,12.31
2023-05-10T09:24:41.935Z,11.91
2023-05-10T09:25:44.715Z,13.81
2023-05-10T09:26:47.379Z,12.98
2023-05-10T09:27:50.157Z,12.20
2023-05-10T09:28:53.045Z,14.76
2023-05-10T09:29:55.800Z,16.71
2023-05-10T09:30:58.638Z,11.86
2023-05-10T09:32:01.339Z,15.66
2023-05-10T09:33:04.066Z,16.98
2023-05-10T09:34:07.093Z,14.90
2023-05-10T09:35:10.277Z,16.70
2023-05-10T09:36:13.364Z,16.21
2023-05-10T09:37:16.435Z,14.57
2023-05-10T09:38:19.305Z,14.76
2023-05-10T09:39:22.282Z,15.22
2023-05-10T09:40:25.180Z,14.87
2023-05-10T09:41:28.238Z,16.52
2023-05-10T09:42:31.430Z,15.73
2023-05-10T09:43:34.396Z,19.24
2023-05-10T09:44:37.409Z,15.84
2023-05-10T09:45:40.351Z,17.76
2023-05-10T09:46:43.377Z,15.72
2023-05-10T09:47:46.719Z,18.44
2023-05-10T09:48:49.595Z,13.16
2023-05-10T09:49:52.676Z,13.72
2023-05-10T09:50:55.750Z,18.19
2023-05-10T09:51:58.844Z,16.72
2023-05-10T09:53:01.948Z,16.66
2023-05-10T09:54:04.590Z,19.79
2023-05-10T09:55:07.353Z,17.38
2023-05-10T09:56:10.052Z,16.16
2023-05-10T09:57:12.891Z,18.99
2023-05-10T09:58:15.770Z,17.57
2023-05-10T09:59:18.557Z,18.47
2023-05-10T10:00:21.213Z,15.28
2023-05-10T10:01:24.031Z,16.25
2023-05-10T10:02:26.978Z,17.32
2023-05-10T10:03:30.436Z,16.47
2023-05-10T10:04:33.785Z,16.66
2023-05-10T10:05:37.013Z,12.82
2023-05-10T10:06:39.822Z,13.59
2023-05-10T10:07:42.874Z,15.18
2023-05-10T10:08:46.171Z,17.08
2023-05-10T10:09:49.235Z,15.96
2023-05-10T10:10:54.677Z,14.60
2023-05-10T10:11:57.654Z,13.73
2023-05-10T10:13:00.727Z,16.79
2023-05-10T10:14:03.811Z,15.79
2023-05-10T10:15:06.682Z,16.15
2023-05-10T10:16:09.776Z,15.88
2023-05-10T10:17:12.840Z,16.53
2023-05-10T10:18:21.518Z,16.56
2023-05-10T10:19:24.645Z,16.07
2023-05-10T10:20:27.719Z,16.93
2023-05-10T10:21:30.695Z,18.77
2023-05-10T10:22:33.669Z,22.07
2023-05-10T10:23:36.748Z,18.64
2023-05-10T10:24:39.928Z,15.58
2023-05-10T10:25:43.007Z,17.37
2023-05-10T10:26:45.986Z,17.58
2023-05-10T10:27:48.967Z,18.92
2023-05-10T10:28:51.936Z,18.43
2023-05-10T10:29:54.819Z,15.58
2023-05-10T10:30:57.801Z,17.88
2023-05-10T10:32:00.779Z,16.08
2023-05-10T10:33:07.921Z,18.29
2023-05-10T10:34:08.204Z,18.31
2023-05-10T10:35:11.340Z,20.57
2023-05-10T10:36:14.315Z,18.94
2023-05-10T10:37:17.303Z,18.67
2023-05-10T10:38:20.364Z,17.25
2023-05-10T10:39:23.352Z,22.18
2023-05-10T10:40:26.387Z,19.64
2023-05-10T10:41:29.402Z,16.56
2023-05-10T10:42:32.283Z,18.02
2023-05-10T10:43:35.455Z,16.69
2023-05-10T10:44:38.550Z,17.14
2023-05-10T10:45:42.255Z,18.91
2023-05-10T10:46:45.569Z,24.18
2023-05-10T10:47:49.465Z,18.10
2023-05-10T10:48:54.749Z,17.92
2023-05-10T10:49:57.928Z,19.61
2023-05-10T10:51:01.213Z,17.24
2023-05-10T10:52:05.005Z,17.75
2023-05-10T10:53:08.101Z,17.22
2023-05-10T10:54:11.066Z,15.75
2023-05-10T10:55:14.098Z,21.15
2023-05-10T10:56:17.223Z,19.25
2023-05-10T10:57:20.496Z,20.68
2023-05-10T10:58:23.382Z,24.18
2023-05-10T10:59:26.358Z,21.58
2023-05-10T11:00:29.345Z,24.41
2023-05-10T11:01:32.134Z,22.88
2023-05-10T11:02:34.968Z,23.99
2023-05-10T11:03:37.552Z,18.69
2023-05-10T11:04:40.346Z,19.20
2023-05-10T11:05:42.945Z,21.14
2023-05-10T11:06:45.559Z,20.33
2023-05-10T11:07:48.227Z,22.18
2023-05-10T11:08:51.001Z,20.15
2023-05-10T11:09:53.773Z,19.80
2023-05-10T11:10:56.658Z,22.25
2023-05-10T11:11:59.561Z,24.41
2023-05-10T11:13:02.303Z,20.64
2023-05-10T11:14:05.269Z,17.38
2023-05-10T11:15:08.256Z,24.41
2023-05-10T11:16:11.558Z,23.11
2023-05-10T11:17:14.773Z,20.19
2023-05-10T11:18:17.848Z,19.45
2023-05-10T11:19:20.889Z,19.99
2023-05-10T11:20:23.968Z,20.72
2023-05-10T11:21:26.581Z,21.72
2023-05-10T11:22:30.017Z,20.05
2023-05-10T11:23:33.334Z,21.86
2023-05-10T11:24:36.395Z,23.91
2023-05-10T11:25:39.352Z,21.89
2023-05-10T11:26:42.330Z,20.35
2023-05-10T11:27:45.711Z,23.77
2023-05-10T11:28:49.030Z,19.90
2023-05-10T11:29:52.078Z,26.13
2023-05-10T11:30:55.507Z,24.11
2023-05-10T11:31:58.541Z,26.29
2023-05-10T11:33:01.481Z,30.20
2023-05-10T11:34:04.510Z,31.31
2023-05-10T11:35:07.391Z,27.85
2023-05-10T11:36:10.352Z,38.95
2023-05-10T11:37:13.428Z,35.66
2023-05-10T11:38:16.710Z,27.57
2023-05-10T11:39:19.693Z,29.55
2023-05-10T11:40:22.686Z,20.60
2023-05-10T11:41:25.647Z,20.85
2023-05-10T11:42:28.726Z,24.32
2023-05-10T11:43:31.922Z,25.67
2023-05-10T11:44:34.696Z,22.73
2023-05-10T11:45:37.767Z,21.02
2023-05-10T11:46:40.144Z,24.08
2023-05-10T11:47:43.121Z,22.36
2023-05-10T11:48:46.284Z,17.20
2023-05-10T11:49:49.051Z,16.20
2023-05-10T11:50:51.927Z,19.33
2023-05-10T11:51:54.801Z,21.08
2023-05-10T11:52:57.778Z,16.97
2023-05-10T11:54:00.658Z,20.82
2023-05-10T11:55:03.630Z,15.79
2023-05-10T11:56:06.630Z,14.82
2023-05-10T11:57:09.589Z,22.78
2023-05-10T11:58:12.765Z,18.30
2023-05-10T11:59:15.543Z,18.63
2023-05-10T12:00:18.614Z,19.35
2023-05-10T12:01:21.698Z,22.63
2023-05-10T12:02:24.563Z,18.27
2023-05-10T12:03:27.466Z,21.08
2023-05-10T12:04:30.124Z,18.06
2023-05-10T12:05:32.778Z,16.64
2023-05-10T12:06:35.348Z,21.94
2023-05-10T12:07:38.132Z,21.41
2023-05-10T12:08:40.897Z,16.33
2023-05-10T12:09:44.346Z,21.37
2023-05-10T12:10:47.157Z,49.78
2023-05-10T12:11:49.932Z,65.07
2023-05-10T12:12:52.490Z,58.83
2023-05-10T12:13:55.175Z,41.13
2023-05-10T12:14:57.837Z,22.70
2023-05-10T12:16:00.538Z,34.76
2023-05-10T12:17:03.275Z,21.73
2023-05-10T12:18:05.988Z,15.12
2023-05-10T12:19:08.853Z,17.08
2023-05-10T12:20:11.590Z,18.21
2023-05-10T12:21:14.269Z,20.76
2023-05-10T12:22:16.931Z,17.22
2023-05-10T12:23:19.410Z,17.77
2023-05-10T12:24:21.971Z,19.88
2023-05-10T12:25:24.846Z,16.97
2023-05-10T12:26:27.622Z,15.38
2023-05-10T12:27:30.282Z,19.76
2023-05-10T12:28:33.051Z,22.38
2023-05-10T12:29:35.954Z,18.32
2023-05-10T12:30:38.805Z,16.25
2023-05-10T12:31:41.509Z,16.60
2023-05-10T12:32:44.146Z,24.40
2023-05-10T12:33:47.122Z,18.16
2023-05-10T12:34:50.111Z,15.57
2023-05-10T12:35:53.295Z,16.05
2023-05-10T12:36:56.161Z,19.51
2023-05-10T12:37:58.933Z,24.29
2023-05-10T12:39:01.905Z,18.50
2023-05-10T12:40:04.991Z,17.16
2023-05-10T12:41:08.194Z,17.43
2023-05-10T12:42:11.056Z,21.53
2023-05-10T12:43:14.020Z,18.07
2023-05-10T12:44:17.107Z,24.70
2023-05-10T12:45:20.109Z,20.42
2023-05-10T12:46:23.556Z,20.21
2023-05-10T12:47:26.752Z,21.36
2023-05-10T12:48:29.755Z,27.12
2023-05-10T12:49:32.497Z,15.64
2023-05-10T12:50:35.168Z,18.42
2023-05-10T12:51:38.363Z,18.07
2023-05-10T12:52:41.031Z,18.26
2023-05-10T12:53:45.589Z,22.45
2023-05-10T12:54:47.901Z,21.01
2023-05-10T12:55:50.666Z,16.89
2023-05-10T12:56:53.645Z,16.13
2023-05-10T12:57:56.415Z,15.70
2023-05-10T12:58:59.090Z,16.30
2023-05-10T13:00:01.869Z,19.68
2023-05-10T13:01:04.555Z,18.26
2023-05-10T13:02:07.300Z,20.30
2023-05-10T13:03:10.061Z,17.92
2023-05-10T13:04:12.741Z,18.38
2023-05-10T13:05:15.333Z,18.00
2023-05-10T13:06:17.882Z,17.51
2023-05-10T13:07:20.662Z,18.33
2023-05-10T13:08:23.454Z,19.01
2023-05-10T13:09:26.041Z,21.03
2023-05-10T13:10:28.667Z,15.60
2023-05-10T13:11:31.329Z,17.15
2023-05-10T13:12:34.315Z,19.25
2023-05-10T13:13:37.099Z,18.62
2023-05-10T13:14:39.953Z,16.67
2023-05-10T13:15:43.043Z,21.25
2023-05-10T13:16:45.827Z,20.02
2023-05-10T13:17:49.042Z,17.34
2023-05-10T13:18:51.878Z,18.91
2023-05-10T13:19:54.731Z,17.29
2023-05-10T13:20:57.730Z,16.98
2023-05-10T13:22:00.586Z,18.11
2023-05-10T13:23:03.715Z,18.52
2023-05-10T13:24:06.544Z,16.01
2023-05-10T13:25:09.412Z,18.71
2023-05-10T13:26:12.408Z,21.08
2023-05-10T13:27:15.270Z,22.13
2023-05-10T13:28:18.342Z,20.83
2023-05-10T13:29:21.219Z,23.70
2023-05-10T13:30:24.097Z,22.09
2023-05-10T13:31:27.249Z,21.49
2023-05-10T13:32:30.269Z,22.14
2023-05-10T13:33:32.935Z,22.15
2023-05-10T13:34:35.498Z,23.74
2023-05-10T13:35:38.168Z,23.56
2023-05-10T13:36:40.836Z,30.86
2023-05-10T13:37:43.495Z,24.35
2023-05-10T13:38:46.270Z,24.22
2023-05-10T13:39:48.944Z,25.09
2023-05-10T13:40:51.417Z,24.11
2023-05-10T13:41:55.785Z,22.45
2023-05-10T13:42:58.798Z,19.17
2023-05-10T13:44:01.779Z,20.30
2023-05-10T13:45:04.875Z,20.50